sensor_id;sensor_type;location;lat;lon;timestamp;temperature;humidity
4429;DHT22;2227;47.810;8.810;2024-01-30T04:48:58;-1.40;99.90
4429;DHT22;2227;47.810;8.810;2024-01-30T04:51:25;-1.50;99.90
4429;DHT22;2227;47.810;8.810;2024-01-30T04:53:52;-1.50;99.90
4429;DHT22;2227;47.810;8.810;2024-01-30T04:56:19;-1.50;99.90
4429;DHT22;2227;47.810;8.810;2024-01-30T04:58:45;-1.50;99.90
4429;DHT22;2227;47.810;8.810;2024-01-30T05:01:16;-1.50;99.90
4429;DHT22;2227;47.810;8.810;2024-01-30T05:03:43;-1.60;99.90
4429;DHT22;2227;47.810;8.810;2024-01-30T05:06:10;-1.50;99.90
4429;DHT22;2227;47.810;8.810;2024-01-30T05:08:37;-1.50;99.90
4429;DHT22;2227;47.810;8.810;2024-01-30T05:11:05;-1.50;99.90
4429;DHT22;2227;47.810;8.810;2024-01-30T05:13:32;-1.40;99.90
4429;DHT22;2227;47.810;8.810;2024-01-30T05:16:01;-1.50;99.90
4429;DHT22;2227;47.810;8.810;2024-01-30T05:18:28;-1.40;99.90
4429;DHT22;2227;47.810;8.810;2024-01-30T05:20:55;-1.30;99.90
4429;DHT22;2227;47.810;8.810;2024-01-30T05:23:22;-1.40;99.90
4429;DHT22;2227;47.810;8.810;2024-01-30T05:25:49;-1.50;99.90
4429;DHT22;2227;47.810;8.810;2024-01-30T05:28:15;-1.50;99.90
4429;DHT22;2227;47.810;8.810;2024-01-30T05:30:42;-1.50;99.90
4429;DHT22;2227;47.810;8.810;2024-01-30T05:33:09;-1.40;99.90
4429;DHT22;2227;47.810;8.810;2024-01-30T05:35:38;-1.40;99.90
4429;DHT22;2227;47.810;8.810;2024-01-30T05:38:05;-1.40;99.90
4429;DHT22;2227;47.810;8.810;2024-01-30T05:40:32;-1.30;99.90
4429;DHT22;2227;47.810;8.810;2024-01-30T05:42:59;-1.30;99.90
4429;DHT22;2227;47.810;8.810;2024-01-30T05:45:28;-1.40;99.90
4429;DHT22;2227;47.810;8.810;2024-01-30T05:47:54;-1.50;99.90
4429;DHT22;2227;47.810;8.810;2024-01-30T05:50:21;-1.50;99.90
4429;DHT22;2227;47.810;8.810;2024-01-30T05:52:50;-1.40;99.90
4429;DHT22;2227;47.810;8.810;2024-01-30T05:55:16;-1.30;99.90
4429;DHT22;2227;47.810;8.810;2024-01-30T05:57:44;-1.30;99.90
4429;DHT22;2227;47.810;8.810;2024-01-30T06:00:11;-1.40;99.90
4429;DHT22;2227;47.810;8.810;2024-01-30T06:02:37;-1.30;99.90
4429;DHT22;2227;47.810;8.810;2024-01-30T06:05:05;-1.30;99.90
4429;DHT22;2227;47.810;8.810;2024-01-30T06:07:32;-1.20;99.90
4429;DHT22;2227;47.810;8.810;2024-01-30T06:10:03;-1.30;99.90
4429;DHT22;2227;47.810;8.810;2024-01-30T06:12:30;-1.30;99.90
4429;DHT22;2227;47.810;8.810;2024-01-30T06:14:57;-1.30;99.90
4429;DHT22;2227;47.810;8.810;2024-01-30T06:17:24;-1.30;99.90
4429;DHT22;2227;47.810;8.810;2024-01-30T06:19:50;-1.30;99.90
4429;DHT22;2227;47.810;8.810;2024-01-30T06:22:17;-1.30;99.90
4429;DHT22;2227;47.810;8.810;2024-01-30T06:24:44;-1.30;99.90
4429;DHT22;2227;47.810;8.810;2024-01-30T06:27:11;-1.20;99.90
4429;DHT22;2227;47.810;8.810;2024-01-30T06:29:38;-1.30;99.90
4429;DHT22;2227;47.810;8.810;2024-01-30T06:32:05;-1.20;99.90
4429;DHT22;2227;47.810;8.810;2024-01-30T06:34:32;-1.20;99.90
4429;DHT22;2227;47.810;8.810;2024-01-30T06:36:59;-1.10;99.90
4429;DHT22;2227;47.810;8.810;2024-01-30T06:39:26;-1.10;99.90
4429;DHT22;2227;47.810;8.810;2024-01-30T06:41:53;-1.10;99.90
4429;DHT22;2227;47.810;8.810;2024-01-30T06:44:20;-1.00;99.90
4429;DHT22;2227;47.810;8.810;2024-01-30T06:46:47;-1.10;99.90
4429;DHT22;2227;47.810;8.810;2024-01-30T06:49:13;-1.00;99.90
4429;DHT22;2227;47.810;8.810;2024-01-30T06:51:40;-1.00;99.90
4429;DHT22;2227;47.810;8.810;2024-01-30T06:54:07;-0.90;99.90
4429;DHT22;2227;47.810;8.810;2024-01-30T06:56:35;-0.80;99.90
4429;DHT22;2227;47.810;8.810;2024-01-30T06:59:02;-0.80;99.90
4429;DHT22;2227;47.810;8.810;2024-01-30T07:01:29;-0.80;99.90
4429;DHT22;2227;47.810;8.810;2024-01-30T07:03:57;-0.80;99.90
4429;DHT22;2227;47.810;8.810;2024-01-30T07:06:24;-0.80;99.90
4429;DHT22;2227;47.810;8.810;2024-01-30T07:08:51;-0.80;99.90
4429;DHT22;2227;47.810;8.810;2024-01-30T07:11:22;-0.70;99.90
4429;DHT22;2227;47.810;8.810;2024-01-30T07:13:51;-0.70;99.90
4429;DHT22;2227;47.810;8.810;2024-01-30T07:16:17;-0.70;99.90
4429;DHT22;2227;47.810;8.810;2024-01-30T07:18:44;-0.70;99.90
4429;DHT22;2227;47.810;8.810;2024-01-30T07:21:12;-0.50;99.90
4429;DHT22;2227;47.810;8.810;2024-01-30T07:23:38;-0.60;99.90
4429;DHT22;2227;47.810;8.810;2024-01-30T07:26:05;-0.60;99.90
4429;DHT22;2227;47.810;8.810;2024-01-30T07:28:35;-0.60;99.90
4429;DHT22;2227;47.810;8.810;2024-01-30T07:31:02;-0.60;99.90
4429;DHT22;2227;47.810;8.810;2024-01-30T07:33:30;-0.60;99.90
4429;DHT22;2227;47.810;8.810;2024-01-30T07:35:56;-0.60;99.90
4429;DHT22;2227;47.810;8.810;2024-01-30T07:38:24;-0.50;99.90
4429;DHT22;2227;47.810;8.810;2024-01-30T07:40:51;-0.50;99.90
4429;DHT22;2227;47.810;8.810;2024-01-30T07:43:18;-0.40;99.90
4429;DHT22;2227;47.810;8.810;2024-01-30T07:45:46;-0.40;99.90
4429;DHT22;2227;47.810;8.810;2024-01-30T07:48:13;-0.40;99.90
4429;DHT22;2227;47.810;8.810;2024-01-30T07:50:40;-0.40;99.90
4429;DHT22;2227;47.810;8.810;2024-01-30T07:53:08;-0.40;99.90
4429;DHT22;2227;47.810;8.810;2024-01-30T07:55:34;-0.30;99.90
4429;DHT22;2227;47.810;8.810;2024-01-30T07:58:01;-0.30;99.90
4429;DHT22;2227;47.810;8.810;2024-01-30T08:00:28;-0.30;99.90
4429;DHT22;2227;47.810;8.810;2024-01-30T08:02:56;-0.20;99.90
4429;DHT22;2227;47.810;8.810;2024-01-30T08:05:23;-0.20;99.90
4429;DHT22;2227;47.810;8.810;2024-01-30T08:07:50;-0.20;99.90
4429;DHT22;2227;47.810;8.810;2024-01-30T08:10:18;-0.20;99.90
4429;DHT22;2227;47.810;8.810;2024-01-30T08:12:45;-0.20;99.90
4429;DHT22;2227;47.810;8.810;2024-01-30T08:15:12;-0.10;99.90
4429;DHT22;2227;47.810;8.810;2024-01-30T08:17:39;0.00;99.90
4429;DHT22;2227;47.810;8.810;2024-01-30T08:20:07;0.10;99.90
4429;DHT22;2227;47.810;8.810;2024-01-30T08:22:35;0.20;99.90
4429;DHT22;2227;47.810;8.810;2024-01-30T08:25:02;0.30;99.90
4429;DHT22;2227;47.810;8.810;2024-01-30T08:27:29;0.40;99.90
4429;DHT22;2227;47.810;8.810;2024-01-30T08:29:56;0.50;99.90
4429;DHT22;2227;47.810;8.810;2024-01-30T08:32:23;0.50;99.90
4429;DHT22;2227;47.810;8.810;2024-01-30T08:34:50;0.60;99.90
4429;DHT22;2227;47.810;8.810;2024-01-30T08:37:17;0.60;99.90
4429;DHT22;2227;47.810;8.810;2024-01-30T08:39:44;0.60;99.90
4429;DHT22;2227;47.810;8.810;2024-01-30T08:42:11;0.60;99.90
4429;DHT22;2227;47.810;8.810;2024-01-30T08:44:38;0.50;99.90
4429;DHT22;2227;47.810;8.810;2024-01-30T08:47:05;0.70;99.90
4429;DHT22;2227;47.810;8.810;2024-01-30T08:49:32;0.90;99.90
4429;DHT22;2227;47.810;8.810;2024-01-30T08:51:59;1.00;99.90
4429;DHT22;2227;47.810;8.810;2024-01-30T08:54:26;1.20;99.90
4429;DHT22;2227;47.810;8.810;2024-01-30T08:56:53;1.30;99.90
4429;DHT22;2227;47.810;8.810;2024-01-30T08:59:20;1.40;99.90
4429;DHT22;2227;47.810;8.810;2024-01-30T09:01:46;1.40;99.90
4429;DHT22;2227;47.810;8.810;2024-01-30T09:04:29;1.40;99.90
4429;DHT22;2227;47.810;8.810;2024-01-30T09:06:55;1.50;99.90
4429;DHT22;2227;47.810;8.810;2024-01-30T09:09:22;1.70;99.90
4429;DHT22;2227;47.810;8.810;2024-01-30T09:11:49;1.70;99.90
4429;DHT22;2227;47.810;8.810;2024-01-30T09:14:16;1.90;99.90
4429;DHT22;2227;47.810;8.810;2024-01-30T09:16:43;2.00;99.90
4429;DHT22;2227;47.810;8.810;2024-01-30T09:19:09;2.10;99.90
4429;DHT22;2227;47.810;8.810;2024-01-30T09:21:36;2.20;99.90
4429;DHT22;2227;47.810;8.810;2024-01-30T09:24:03;2.50;99.90
4429;DHT22;2227;47.810;8.810;2024-01-30T09:26:30;2.80;99.90
4429;DHT22;2227;47.810;8.810;2024-01-30T09:28:57;3.00;99.90
4429;DHT22;2227;47.810;8.810;2024-01-30T09:31:24;3.00;99.90
4429;DHT22;2227;47.810;8.810;2024-01-30T09:33:51;2.90;99.90
4429;DHT22;2227;47.810;8.810;2024-01-30T09:36:21;2.60;99.90
4429;DHT22;2227;47.810;8.810;2024-01-30T09:38:48;2.50;99.90
4429;DHT22;2227;47.810;8.810;2024-01-30T09:41:15;2.80;99.90
4429;DHT22;2227;47.810;8.810;2024-01-30T09:43:47;3.00;99.90
4429;DHT22;2227;47.810;8.810;2024-01-30T09:46:17;3.30;99.90
4429;DHT22;2227;47.810;8.810;2024-01-30T09:48:48;3.50;99.90
4429;DHT22;2227;47.810;8.810;2024-01-30T09:51:15;3.50;99.90
4429;DHT22;2227;47.810;8.810;2024-01-30T09:53:43;3.60;99.90
4429;DHT22;2227;47.810;8.810;2024-01-30T09:56:12;4.00;99.90
4429;DHT22;2227;47.810;8.810;2024-01-30T09:58:39;4.00;99.90
4429;DHT22;2227;47.810;8.810;2024-01-30T10:01:06;4.40;99.90
4429;DHT22;2227;47.810;8.810;2024-01-30T10:03:33;4.60;99.90
4429;DHT22;2227;47.810;8.810;2024-01-30T10:06:01;4.40;99.90
4429;DHT22;2227;47.810;8.810;2024-01-30T10:08:28;4.60;99.90
4429;DHT22;2227;47.810;8.810;2024-01-30T10:10:56;4.60;99.90
4429;DHT22;2227;47.810;8.810;2024-01-30T10:13:25;4.40;99.90
4429;DHT22;2227;47.810;8.810;2024-01-30T10:15:53;4.40;99.90
4429;DHT22;2227;47.810;8.810;2024-01-30T10:18:20;4.30;99.90
4429;DHT22;2227;47.810;8.810;2024-01-30T10:20:47;4.10;99.90
4429;DHT22;2227;47.810;8.810;2024-01-30T10:23:14;4.20;99.90
4429;DHT22;2227;47.810;8.810;2024-01-30T10:25:40;4.20;99.90
4429;DHT22;2227;47.810;8.810;2024-01-30T10:28:08;4.40;99.90
4429;DHT22;2227;47.810;8.810;2024-01-30T10:30:35;4.40;99.90
4429;DHT22;2227;47.810;8.810;2024-01-30T10:33:02;4.40;99.90
4429;DHT22;2227;47.810;8.810;2024-01-30T10:35:29;4.40;99.90
4429;DHT22;2227;47.810;8.810;2024-01-30T10:37:57;4.40;99.90
4429;DHT22;2227;47.810;8.810;2024-01-30T10:40:28;4.40;99.90
4429;DHT22;2227;47.810;8.810;2024-01-30T10:42:56;4.30;99.90
4429;DHT22;2227;47.810;8.810;2024-01-30T10:45:25;4.20;99.90
4429;DHT22;2227;47.810;8.810;2024-01-30T10:47:55;4.00;99.90
4429;DHT22;2227;47.810;8.810;2024-01-30T10:50:25;4.00;99.90
4429;DHT22;2227;47.810;8.810;2024-01-30T10:52:54;4.30;99.90
4429;DHT22;2227;47.810;8.810;2024-01-30T10:55:22;4.40;99.90
4429;DHT22;2227;47.810;8.810;2024-01-30T10:57:50;4.70;99.90
4429;DHT22;2227;47.810;8.810;2024-01-30T11:00:18;5.10;99.90
4429;DHT22;2227;47.810;8.810;2024-01-30T11:02:49;5.40;99.90
4429;DHT22;2227;47.810;8.810;2024-01-30T11:05:23;5.70;99.90
4429;DHT22;2227;47.810;8.810;2024-01-30T11:07:59;5.70;99.90
4429;DHT22;2227;47.810;8.810;2024-01-30T11:10:26;5.80;99.90
4429;DHT22;2227;47.810;8.810;2024-01-30T11:12:52;5.90;99.90
4429;DHT22;2227;47.810;8.810;2024-01-30T11:15:19;5.60;99.90
4429;DHT22;2227;47.810;8.810;2024-01-30T11:20:29;5.60;99.90
4429;DHT22;2227;47.810;8.810;2024-01-30T11:22:59;5.80;99.90
4429;DHT22;2227;47.810;8.810;2024-01-30T11:25:32;5.90;99.90
4429;DHT22;2227;47.810;8.810;2024-01-30T11:28:00;5.70;99.90
4429;DHT22;2227;47.810;8.810;2024-01-30T11:30:33;5.40;99.90
4429;DHT22;2227;47.810;8.810;2024-01-30T11:33:07;5.30;99.90
4429;DHT22;2227;47.810;8.810;2024-01-30T11:35:37;5.20;99.90
4429;DHT22;2227;47.810;8.810;2024-01-30T11:38:07;5.40;99.90
4429;DHT22;2227;47.810;8.810;2024-01-30T11:40:36;5.40;99.90
4429;DHT22;2227;47.810;8.810;2024-01-30T11:43:05;5.20;99.90
4429;DHT22;2227;47.810;8.810;2024-01-30T11:45:33;5.30;99.90
4429;DHT22;2227;47.810;8.810;2024-01-30T11:48:00;5.50;99.90
4429;DHT22;2227;47.810;8.810;2024-01-30T11:50:31;5.40;99.90
4429;DHT22;2227;47.810;8.810;2024-01-30T11:53:01;5.70;99.90
4429;DHT22;2227;47.810;8.810;2024-01-30T11:55:29;5.80;99.90
4429;DHT22;2227;47.810;8.810;2024-01-30T11:58:01;6.10;99.90
4429;DHT22;2227;47.810;8.810;2024-01-30T12:00:28;6.40;99.90
4429;DHT22;2227;47.810;8.810;2024-01-30T12:02:56;6.50;99.90
4429;DHT22;2227;47.810;8.810;2024-01-30T12:05:26;6.50;99.90
4429;DHT22;2227;47.810;8.810;2024-01-30T12:07:54;6.60;99.90
4429;DHT22;2227;47.810;8.810;2024-01-30T12:10:21;6.70;99.90
4429;DHT22;2227;47.810;8.810;2024-01-30T12:12:50;6.50;99.90
4429;DHT22;2227;47.810;8.810;2024-01-30T12:15:18;7.10;99.90
4429;DHT22;2227;47.810;8.810;2024-01-30T12:17:45;7.30;99.90
4429;DHT22;2227;47.810;8.810;2024-01-30T12:20:18;7.50;99.90
4429;DHT22;2227;47.810;8.810;2024-01-30T12:22:46;7.70;99.90
4429;DHT22;2227;47.810;8.810;2024-01-30T12:25:15;8.10;99.90
4429;DHT22;2227;47.810;8.810;2024-01-30T12:27:44;8.70;99.90
4429;DHT22;2227;47.810;8.810;2024-01-30T12:30:12;9.40;99.90
4429;DHT22;2227;47.810;8.810;2024-01-30T12:32:47;10.00;99.90
4429;DHT22;2227;47.810;8.810;2024-01-30T12:35:17;10.20;99.90
4429;DHT22;2227;47.810;8.810;2024-01-30T12:37:45;10.50;99.90
4429;DHT22;2227;47.810;8.810;2024-01-30T12:40:13;10.40;99.90
4429;DHT22;2227;47.810;8.810;2024-01-30T12:42:42;10.20;99.90
4429;DHT22;2227;47.810;8.810;2024-01-30T12:45:18;9.90;99.90
4429;DHT22;2227;47.810;8.810;2024-01-30T12:47:49;9.80;99.90
4429;DHT22;2227;47.810;8.810;2024-01-30T12:50:16;9.80;99.90
4429;DHT22;2227;47.810;8.810;2024-01-30T12:52:44;9.80;99.90
4429;DHT22;2227;47.810;8.810;2024-01-30T12:55:15;9.60;99.90
4429;DHT22;2227;47.810;8.810;2024-01-30T12:57:42;9.70;99.90
4429;DHT22;2227;47.810;8.810;2024-01-30T13:00:09;9.40;99.90
4429;DHT22;2227;47.810;8.810;2024-01-30T13:02:37;9.20;99.90
4429;DHT22;2227;47.810;8.810;2024-01-30T13:05:04;9.30;99.90
4429;DHT22;2227;47.810;8.810;2024-01-30T13:07:31;9.30;99.90
4429;DHT22;2227;47.810;8.810;2024-01-30T13:09:58;9.40;99.90
4429;DHT22;2227;47.810;8.810;2024-01-30T13:12:30;9.50;99.90
4429;DHT22;2227;47.810;8.810;2024-01-30T13:14:59;9.40;99.90
4429;DHT22;2227;47.810;8.810;2024-01-30T13:17:27;9.60;99.90
4429;DHT22;2227;47.810;8.810;2024-01-30T13:19:54;9.40;99.90
4429;DHT22;2227;47.810;8.810;2024-01-30T13:22:27;9.50;99.90
4429;DHT22;2227;47.810;8.810;2024-01-30T13:24:54;9.40;99.90
4429;DHT22;2227;47.810;8.810;2024-01-30T13:27:21;9.50;99.90
4429;DHT22;2227;47.810;8.810;2024-01-30T13:29:48;9.30;99.90
4429;DHT22;2227;47.810;8.810;2024-01-30T13:32:14;9.10;99.90
4429;DHT22;2227;47.810;8.810;2024-01-30T13:34:42;9.10;99.90
4429;DHT22;2227;47.810;8.810;2024-01-30T13:37:09;9.10;99.90
4429;DHT22;2227;47.810;8.810;2024-01-30T13:39:37;9.20;99.90
4429;DHT22;2227;47.810;8.810;2024-01-30T13:42:05;9.20;99.90
4429;DHT22;2227;47.810;8.810;2024-01-30T13:44:32;9.10;99.90
4429;DHT22;2227;47.810;8.810;2024-01-30T13:46:59;9.20;99.90
4429;DHT22;2227;47.810;8.810;2024-01-30T13:49:26;9.20;99.90
4429;DHT22;2227;47.810;8.810;2024-01-30T13:51:55;9.10;99.90
4429;DHT22;2227;47.810;8.810;2024-01-30T13:54:23;8.80;99.90
4429;DHT22;2227;47.810;8.810;2024-01-30T13:56:50;8.40;99.90
4429;DHT22;2227;47.810;8.810;2024-01-30T13:59:17;8.70;99.90
4429;DHT22;2227;47.810;8.810;2024-01-30T14:01:50;9.10;99.90
4429;DHT22;2227;47.810;8.810;2024-01-30T14:04:17;9.30;99.90
4429;DHT22;2227;47.810;8.810;2024-01-30T14:06:44;9.70;99.90
4429;DHT22;2227;47.810;8.810;2024-01-30T14:09:22;9.90;99.90
4429;DHT22;2227;47.810;8.810;2024-01-30T14:11:49;10.10;99.90
4429;DHT22;2227;47.810;8.810;2024-01-30T14:14:16;10.40;99.90
4429;DHT22;2227;47.810;8.810;2024-01-30T14:16:42;10.40;99.90
4429;DHT22;2227;47.810;8.810;2024-01-30T14:19:09;10.40;99.90
4429;DHT22;2227;47.810;8.810;2024-01-30T14:21:36;10.50;99.90
4429;DHT22;2227;47.810;8.810;2024-01-30T14:24:04;10.00;99.90
4429;DHT22;2227;47.810;8.810;2024-01-30T14:26:30;9.80;99.90
4429;DHT22;2227;47.810;8.810;2024-01-30T14:28:57;9.80;99.90
4429;DHT22;2227;47.810;8.810;2024-01-30T14:31:24;9.80;99.90
4429;DHT22;2227;47.810;8.810;2024-01-30T14:33:51;9.70;99.90
4429;DHT22;2227;47.810;8.810;2024-01-30T14:36:19;9.70;99.90
4429;DHT22;2227;47.810;8.810;2024-01-30T14:38:47;9.80;99.90
4429;DHT22;2227;47.810;8.810;2024-01-30T14:41:13;9.60;99.90
4429;DHT22;2227;47.810;8.810;2024-01-30T14:43:41;9.30;99.90
4429;DHT22;2227;47.810;8.810;2024-01-30T14:46:07;9.30;99.90
4429;DHT22;2227;47.810;8.810;2024-01-30T14:48:34;9.30;99.90
4429;DHT22;2227;47.810;8.810;2024-01-30T14:51:01;9.20;99.90
4429;DHT22;2227;47.810;8.810;2024-01-30T14:53:28;9.30;99.90
4429;DHT22;2227;47.810;8.810;2024-01-30T14:55:55;9.50;99.90
4429;DHT22;2227;47.810;8.810;2024-01-30T14:58:22;9.60;99.90
4429;DHT22;2227;47.810;8.810;2024-01-30T15:00:49;9.50;99.90
4429;DHT22;2227;47.810;8.810;2024-01-30T15:03:15;9.30;99.90
4429;DHT22;2227;47.810;8.810;2024-01-30T15:05:43;9.10;99.90
4429;DHT22;2227;47.810;8.810;2024-01-30T15:08:10;8.90;99.90
4429;DHT22;2227;47.810;8.810;2024-01-30T15:10:37;8.60;99.90
4429;DHT22;2227;47.810;8.810;2024-01-30T15:13:03;8.30;99.90
4429;DHT22;2227;47.810;8.810;2024-01-30T15:15:31;8.30;99.90
4429;DHT22;2227;47.810;8.810;2024-01-30T15:17:57;8.10;99.90
4429;DHT22;2227;47.810;8.810;2024-01-30T15:20:25;7.80;99.90
4429;DHT22;2227;47.810;8.810;2024-01-30T15:22:52;7.60;99.90
4429;DHT22;2227;47.810;8.810;2024-01-30T15:25:19;7.50;99.90
4429;DHT22;2227;47.810;8.810;2024-01-30T15:27:45;7.30;99.90
4429;DHT22;2227;47.810;8.810;2024-01-30T15:30:12;7.30;99.90
4429;DHT22;2227;47.810;8.810;2024-01-30T15:32:39;7.20;99.90
4429;DHT22;2227;47.810;8.810;2024-01-30T15:35:06;7.10;99.90
4429;DHT22;2227;47.810;8.810;2024-01-30T15:37:33;7.10;99.90
4429;DHT22;2227;47.810;8.810;2024-01-30T15:40:01;7.00;99.90
4429;DHT22;2227;47.810;8.810;2024-01-30T15:42:29;7.10;99.90
4429;DHT22;2227;47.810;8.810;2024-01-30T15:44:55;7.00;99.90
4429;DHT22;2227;47.810;8.810;2024-01-30T15:47:22;6.90;99.90
4429;DHT22;2227;47.810;8.810;2024-01-30T15:49:49;6.90;99.90
4429;DHT22;2227;47.810;8.810;2024-01-30T15:52:16;6.90;99.90
4429;DHT22;2227;47.810;8.810;2024-01-30T15:54:44;6.80;99.90
4429;DHT22;2227;47.810;8.810;2024-01-30T15:57:11;6.60;99.90
4429;DHT22;2227;47.810;8.810;2024-01-30T15:59:37;6.60;99.90
4429;DHT22;2227;47.810;8.810;2024-01-30T16:02:05;6.60;99.90
4429;DHT22;2227;47.810;8.810;2024-01-30T16:04:32;6.50;99.90
4429;DHT22;2227;47.810;8.810;2024-01-30T16:06:59;6.50;99.90
4429;DHT22;2227;47.810;8.810;2024-01-30T16:09:26;6.40;99.90
4429;DHT22;2227;47.810;8.810;2024-01-30T16:11:53;6.30;99.90
4429;DHT22;2227;47.810;8.810;2024-01-30T16:14:19;6.30;99.90
4429;DHT22;2227;47.810;8.810;2024-01-30T16:16:46;6.30;99.90
4429;DHT22;2227;47.810;8.810;2024-01-30T16:19:13;6.20;99.90
4429;DHT22;2227;47.810;8.810;2024-01-30T16:21:40;6.10;99.90
4429;DHT22;2227;47.810;8.810;2024-01-30T16:24:10;6.20;99.90
4429;DHT22;2227;47.810;8.810;2024-01-30T16:26:36;6.20;99.90
4429;DHT22;2227;47.810;8.810;2024-01-30T16:29:03;6.10;99.90
4429;DHT22;2227;47.810;8.810;2024-01-30T16:31:30;6.10;99.90
4429;DHT22;2227;47.810;8.810;2024-01-30T16:33:57;5.90;99.90
4429;DHT22;2227;47.810;8.810;2024-01-30T16:36:26;6.00;99.90
4429;DHT22;2227;47.810;8.810;2024-01-30T16:38:53;5.90;99.90
4429;DHT22;2227;47.810;8.810;2024-01-30T16:41:20;5.70;99.90
4429;DHT22;2227;47.810;8.810;2024-01-30T16:43:47;5.70;99.90
4429;DHT22;2227;47.810;8.810;2024-01-30T16:46:15;5.60;99.90
4429;DHT22;2227;47.810;8.810;2024-01-30T16:48:42;5.60;99.90
4429;DHT22;2227;47.810;8.810;2024-01-30T16:51:09;5.50;99.90
4429;DHT22;2227;47.810;8.810;2024-01-30T16:53:36;5.40;99.90
4429;DHT22;2227;47.810;8.810;2024-01-30T16:56:03;5.40;99.90
4429;DHT22;2227;47.810;8.810;2024-01-30T16:58:30;5.40;99.90
4429;DHT22;2227;47.810;8.810;2024-01-30T17:00:57;5.20;99.90
4429;DHT22;2227;47.810;8.810;2024-01-30T17:03:24;5.20;99.90
4429;DHT22;2227;47.810;8.810;2024-01-30T17:05:51;5.20;99.90
4429;DHT22;2227;47.810;8.810;2024-01-30T17:08:21;5.10;99.90
4429;DHT22;2227;47.810;8.810;2024-01-30T17:10:48;5.20;99.90
4429;DHT22;2227;47.810;8.810;2024-01-30T17:13:15;5.30;99.90
4429;DHT22;2227;47.810;8.810;2024-01-30T17:15:42;5.20;99.90
4429;DHT22;2227;47.810;8.810;2024-01-30T17:18:09;5.10;99.90
4429;DHT22;2227;47.810;8.810;2024-01-30T17:20:36;5.20;99.90
4429;DHT22;2227;47.810;8.810;2024-01-30T17:23:03;5.20;99.90
4429;DHT22;2227;47.810;8.810;2024-01-30T17:25:34;5.10;99.90
4429;DHT22;2227;47.810;8.810;2024-01-30T17:28:01;5.00;99.90
4429;DHT22;2227;47.810;8.810;2024-01-30T17:30:28;5.10;99.90
4429;DHT22;2227;47.810;8.810;2024-01-30T17:32:55;5.20;99.90
4429;DHT22;2227;47.810;8.810;2024-01-30T17:35:23;5.30;99.90
4429;DHT22;2227;47.810;8.810;2024-01-30T17:37:50;5.30;99.90
4429;DHT22;2227;47.810;8.810;2024-01-30T17:40:17;5.20;99.90
4429;DHT22;2227;47.810;8.810;2024-01-30T17:42:44;5.10;99.90
4429;DHT22;2227;47.810;8.810;2024-01-30T17:45:11;5.20;99.90
4429;DHT22;2227;47.810;8.810;2024-01-30T17:47:38;5.20;99.90
4429;DHT22;2227;47.810;8.810;2024-01-30T17:50:05;5.20;99.90
4429;DHT22;2227;47.810;8.810;2024-01-30T17:52:32;5.20;99.90
4429;DHT22;2227;47.810;8.810;2024-01-30T17:54:59;5.20;99.90
4429;DHT22;2227;47.810;8.810;2024-01-30T17:57:26;5.20;99.90
4429;DHT22;2227;47.810;8.810;2024-01-30T17:59:53;5.10;99.90
4429;DHT22;2227;47.810;8.810;2024-01-30T18:02:20;5.10;99.90
4429;DHT22;2227;47.810;8.810;2024-01-30T18:04:46;5.00;99.90
4429;DHT22;2227;47.810;8.810;2024-01-30T18:07:13;5.10;99.90
4429;DHT22;2227;47.810;8.810;2024-01-30T18:09:40;5.00;99.90
4429;DHT22;2227;47.810;8.810;2024-01-30T18:12:07;4.90;99.90
4429;DHT22;2227;47.810;8.810;2024-01-30T18:14:37;5.00;99.90
4429;DHT22;2227;47.810;8.810;2024-01-30T18:17:04;5.00;99.90
4429;DHT22;2227;47.810;8.810;2024-01-30T18:19:31;5.00;99.90
4429;DHT22;2227;47.810;8.810;2024-01-30T18:21:58;4.90;99.90
4429;DHT22;2227;47.810;8.810;2024-01-30T18:24:25;4.90;99.90
4429;DHT22;2227;47.810;8.810;2024-01-30T18:26:53;4.80;99.90
4429;DHT22;2227;47.810;8.810;2024-01-30T18:29:22;4.80;99.90
4429;DHT22;2227;47.810;8.810;2024-01-30T18:31:49;4.80;99.90
4429;DHT22;2227;47.810;8.810;2024-01-30T18:34:16;4.80;99.90
4429;DHT22;2227;47.810;8.810;2024-01-30T18:36:43;4.90;99.90
4429;DHT22;2227;47.810;8.810;2024-01-30T18:39:10;4.90;99.90
4429;DHT22;2227;47.810;8.810;2024-01-30T18:41:37;4.90;99.90
4429;DHT22;2227;47.810;8.810;2024-01-30T18:44:04;5.00;99.90
4429;DHT22;2227;47.810;8.810;2024-01-30T18:46:31;5.10;99.90
4429;DHT22;2227;47.810;8.810;2024-01-30T18:48:58;5.10;99.90
4429;DHT22;2227;47.810;8.810;2024-01-30T18:51:25;4.90;99.90
4429;DHT22;2227;47.810;8.810;2024-01-30T18:53:52;4.90;99.90
4429;DHT22;2227;47.810;8.810;2024-01-30T18:56:20;4.90;99.90
4429;DHT22;2227;47.810;8.810;2024-01-30T18:58:47;4.90;99.90
4429;DHT22;2227;47.810;8.810;2024-01-30T19:01:13;4.90;99.90
4429;DHT22;2227;47.810;8.810;2024-01-30T19:03:41;5.00;99.90
4429;DHT22;2227;47.810;8.810;2024-01-30T19:06:07;4.90;99.90
4429;DHT22;2227;47.810;8.810;2024-01-30T19:08:37;5.00;99.90
4429;DHT22;2227;47.810;8.810;2024-01-30T19:11:03;5.00;99.90
4429;DHT22;2227;47.810;8.810;2024-01-30T19:13:30;4.90;99.90
4429;DHT22;2227;47.810;8.810;2024-01-30T19:15:57;4.90;99.90
4429;DHT22;2227;47.810;8.810;2024-01-30T19:18:24;4.80;99.90
4429;DHT22;2227;47.810;8.810;2024-01-30T19:20:51;4.90;99.90
4429;DHT22;2227;47.810;8.810;2024-01-30T19:23:18;5.00;99.90
4429;DHT22;2227;47.810;8.810;2024-01-30T19:25:47;5.00;99.90
4429;DHT22;2227;47.810;8.810;2024-01-30T19:28:14;5.00;99.90
4429;DHT22;2227;47.810;8.810;2024-01-30T19:30:42;5.10;99.90
4429;DHT22;2227;47.810;8.810;2024-01-30T19:33:09;5.00;99.90
4429;DHT22;2227;47.810;8.810;2024-01-30T19:35:35;5.00;99.90
4429;DHT22;2227;47.810;8.810;2024-01-30T19:38:02;5.00;99.90
4429;DHT22;2227;47.810;8.810;2024-01-30T19:40:29;5.00;99.90
4429;DHT22;2227;47.810;8.810;2024-01-30T19:42:56;5.00;99.90
4429;DHT22;2227;47.810;8.810;2024-01-30T19:45:23;5.00;99.90
4429;DHT22;2227;47.810;8.810;2024-01-30T19:47:50;4.90;99.90
4429;DHT22;2227;47.810;8.810;2024-01-30T19:50:19;5.00;99.90
4429;DHT22;2227;47.810;8.810;2024-01-30T19:52:47;4.90;99.90
4429;DHT22;2227;47.810;8.810;2024-01-30T19:55:13;4.90;99.90
4429;DHT22;2227;47.810;8.810;2024-01-30T19:57:41;4.90;99.90
4429;DHT22;2227;47.810;8.810;2024-01-30T20:00:09;4.80;99.90
4429;DHT22;2227;47.810;8.810;2024-01-30T20:02:40;4.80;99.90
4429;DHT22;2227;47.810;8.810;2024-01-30T20:05:07;4.90;99.90
4429;DHT22;2227;47.810;8.810;2024-01-30T20:07:34;4.90;99.90
4429;DHT22;2227;47.810;8.810;2024-01-30T20:10:02;4.90;99.90
4429;DHT22;2227;47.810;8.810;2024-01-30T20:12:30;5.00;99.90
4429;DHT22;2227;47.810;8.810;2024-01-30T20:14:56;5.00;99.90
4429;DHT22;2227;47.810;8.810;2024-01-30T20:17:23;4.90;99.90
4429;DHT22;2227;47.810;8.810;2024-01-30T20:19:50;4.90;99.90
4429;DHT22;2227;47.810;8.810;2024-01-30T20:22:20;4.90;99.90
4429;DHT22;2227;47.810;8.810;2024-01-30T20:24:47;4.80;99.90
4429;DHT22;2227;47.810;8.810;2024-01-30T20:27:21;4.70;99.90
4429;DHT22;2227;47.810;8.810;2024-01-30T20:29:48;4.60;99.90
4429;DHT22;2227;47.810;8.810;2024-01-30T20:32:15;4.60;99.90
4429;DHT22;2227;47.810;8.810;2024-01-30T20:34:42;4.50;99.90
4429;DHT22;2227;47.810;8.810;2024-01-30T20:37:09;4.50;99.90
4429;DHT22;2227;47.810;8.810;2024-01-30T20:39:36;4.60;99.90
4429;DHT22;2227;47.810;8.810;2024-01-30T20:42:04;4.70;99.90
4429;DHT22;2227;47.810;8.810;2024-01-30T20:44:32;4.70;99.90
4429;DHT22;2227;47.810;8.810;2024-01-30T20:46:59;4.50;99.90
4429;DHT22;2227;47.810;8.810;2024-01-30T20:49:26;4.40;99.90
4429;DHT22;2227;47.810;8.810;2024-01-30T20:51:53;4.50;99.90
4429;DHT22;2227;47.810;8.810;2024-01-30T20:54:20;4.40;99.90
4429;DHT22;2227;47.810;8.810;2024-01-30T20:56:47;4.50;99.90
4429;DHT22;2227;47.810;8.810;2024-01-30T20:59:13;4.50;99.90
4429;DHT22;2227;47.810;8.810;2024-01-30T21:01:40;4.50;99.90
4429;DHT22;2227;47.810;8.810;2024-01-30T21:04:08;4.40;99.90
4429;DHT22;2227;47.810;8.810;2024-01-30T21:06:35;4.30;99.90